createdAt,value
2022-11-03T00:01:48.668Z,101582.84
2022-11-03T00:04:18.642Z,101560.56
2022-11-03T00:06:49.303Z,101562.41
2022-11-03T00:09:18.913Z,101557.94
2022-11-03T00:11:48.060Z,101556.13
2022-11-03T00:14:15.063Z,101541.91
2022-11-03T00:16:42.069Z,101533.94
2022-11-03T00:19:10.290Z,101516.22
2022-11-03T00:21:38.477Z,101521.63
2022-11-03T00:24:06.228Z,101515.38
2022-11-03T00:26:35.798Z,101508.22
2022-11-03T00:29:09.522Z,101510.94
2022-11-03T00:31:39.273Z,101502.06
2022-11-03T00:34:07.250Z,101502.03
2022-11-03T00:36:42.967Z,101494.91
2022-11-03T00:39:11.045Z,101484.25
2022-11-03T00:41:38.592Z,101492.25
2022-11-03T00:44:05.678Z,101479.84
2022-11-03T00:46:35.642Z,101476.28
2022-11-03T00:49:04.348Z,101478.00
2022-11-03T00:51:31.306Z,101484.22
2022-11-03T00:54:00.829Z,101478.81
2022-11-03T00:56:37.661Z,101479.56
2022-11-03T00:59:06.862Z,101476.09
2022-11-03T01:01:45.303Z,101475.16
2022-11-03T01:04:33.465Z,101474.22
2022-11-03T01:07:01.835Z,101475.09
2022-11-03T01:09:38.375Z,101472.53
2022-11-03T01:12:11.278Z,101465.44
2022-11-03T01:14:52.808Z,101468.97
2022-11-03T01:17:25.298Z,101456.59
2022-11-03T01:19:53.111Z,101461.97
2022-11-03T01:22:21.018Z,101454.69
2022-11-03T01:24:48.274Z,101460.84
2022-11-03T01:27:18.605Z,101442.19
2022-11-03T01:29:45.902Z,101432.28
2022-11-03T01:32:13.310Z,101441.16
2022-11-03T01:34:40.431Z,101442.91
2022-11-03T01:37:07.455Z,101433.19
2022-11-03T01:39:34.584Z,101436.66
2022-11-03T01:42:01.567Z,101428.78
2022-11-03T01:44:40.143Z,101420.81
2022-11-03T01:47:14.688Z,101418.03
2022-11-03T01:49:52.827Z,101412.66
2022-11-03T01:52:39.130Z,101416.22
2022-11-03T01:55:21.983Z,101410.09
2022-11-03T01:58:02.650Z,101407.41
2022-11-03T02:00:29.738Z,101401.97
2022-11-03T02:02:57.090Z,101401.13
2022-11-03T02:05:26.189Z,101397.63
2022-11-03T02:08:25.184Z,101406.53
2022-11-03T02:10:52.173Z,101387.13
2022-11-03T02:13:25.364Z,101381.72
2022-11-03T02:15:59.105Z,101390.63
2022-11-03T02:18:34.786Z,101397.78
2022-11-03T02:21:35.790Z,101387.03
2022-11-03T02:24:23.495Z,101382.72
2022-11-03T02:26:56.011Z,101380.81
2022-11-03T02:29:23.150Z,101373.69
2022-11-03T02:31:58.809Z,101377.28
2022-11-03T02:34:45.809Z,101369.28
2022-11-03T02:37:21.621Z,101372.06
2022-11-03T02:39:57.116Z,101365.75
2022-11-03T02:42:25.646Z,101363.91
2022-11-03T02:44:57.964Z,101357.75
2022-11-03T02:47:28.312Z,101350.63
2022-11-03T02:52:45.737Z,101338.03
2022-11-03T02:55:39.417Z,101334.56
2022-11-03T02:58:14.771Z,101326.63
2022-11-03T03:00:56.499Z,101321.28
2022-11-03T03:03:37.017Z,101329.28
2022-11-03T03:06:22.060Z,101325.63
2022-11-03T03:08:56.463Z,101321.25
2022-11-03T03:11:37.508Z,101329.28
2022-11-03T03:14:14.689Z,101322.06
2022-11-03T03:16:57.077Z,101319.34
2022-11-03T03:19:42.278Z,101309.59
2022-11-03T03:22:47.966Z,101293.50
2022-11-03T03:25:36.297Z,101291.63
2022-11-03T03:28:24.495Z,101288.97
2022-11-03T03:30:55.554Z,101289.84
2022-11-03T03:33:24.770Z,101279.97
2022-11-03T03:35:53.537Z,101281.72
2022-11-03T03:38:30.622Z,101272.53
2022-11-03T03:41:03.480Z,101274.28
2022-11-03T03:43:34.832Z,101256.44
2022-11-03T03:46:08.166Z,101252.75
2022-11-03T03:48:35.271Z,101272.28
2022-11-03T03:51:02.827Z,101261.72
2022-11-03T03:53:30.921Z,101257.19
2022-11-03T03:55:59.414Z,101252.47
2022-11-03T03:58:26.425Z,101247.19
2022-11-03T04:00:53.367Z,101248.88
2022-11-03T04:03:23.913Z,101252.41
2022-11-03T04:05:51.574Z,101238.22
2022-11-03T04:08:19.382Z,101231.00
2022-11-03T04:11:05.406Z,101238.13
2022-11-03T04:13:52.009Z,101224.81
2022-11-03T04:16:37.466Z,101245.88
2022-11-03T04:19:23.305Z,101232.59
2022-11-03T04:22:09.033Z,101240.53
2022-11-03T04:24:35.914Z,101232.63
2022-11-03T04:27:26.551Z,101223.75
2022-11-03T04:30:09.688Z,101222.75
2022-11-03T04:32:37.616Z,101221.06
2022-11-03T04:35:19.086Z,101218.44
2022-11-03T04:37:51.309Z,101213.97
2022-11-03T04:40:18.611Z,101217.56
2022-11-03T04:42:46.221Z,101209.56
2022-11-03T04:45:28.630Z,101203.44
2022-11-03T04:47:55.635Z,101206.19
2022-11-03T04:50:24.381Z,101202.75
2022-11-03T04:53:00.462Z,101202.91
2022-11-03T04:55:27.626Z,101204.69
2022-11-03T04:58:22.946Z,101195.06
2022-11-03T05:00:57.262Z,101188.84
2022-11-03T05:03:29.520Z,101182.72
2022-11-03T05:05:57.643Z,101183.78
2022-11-03T05:08:25.379Z,101182.72
2022-11-03T05:10:52.734Z,101180.19
2022-11-03T05:13:26.195Z,101173.16
2022-11-03T05:16:03.932Z,101176.69
2022-11-03T05:18:39.204Z,101175.88
2022-11-03T05:21:21.076Z,101156.34
2022-11-03T05:24:02.988Z,101157.25
2022-11-03T05:26:39.275Z,101155.47
2022-11-03T05:29:30.383Z,101159.06
2022-11-03T05:31:57.549Z,101150.25
2022-11-03T05:34:27.394Z,101144.63
2022-11-03T05:36:54.618Z,101137.66
2022-11-03T05:39:26.578Z,101132.28
2022-11-03T05:41:53.541Z,101134.94
2022-11-03T05:44:26.936Z,101126.06
2022-11-03T05:46:53.832Z,101135.91
2022-11-03T05:49:21.284Z,101125.25
2022-11-03T05:51:48.413Z,101122.59
2022-11-03T05:54:26.372Z,101121.66
2022-11-03T05:56:54.938Z,101118.06
2022-11-03T05:59:26.823Z,101123.31
2022-11-03T06:01:55.642Z,101125.97
2022-11-03T06:04:33.346Z,101119.72
2022-11-03T06:07:37.650Z,101116.94
2022-11-03T06:10:23.960Z,101118.63
2022-11-03T06:12:51.178Z,101114.09
2022-11-03T06:15:34.974Z,101106.09
2022-11-03T06:18:16.835Z,101107.75
2022-11-03T06:20:52.878Z,101102.44
2022-11-03T06:23:21.639Z,101095.16
2022-11-03T06:25:52.460Z,101096.94
2022-11-03T06:28:26.883Z,101092.44
2022-11-03T06:30:54.035Z,101084.50
2022-11-03T06:33:33.960Z,101077.41
2022-11-03T06:36:18.349Z,101081.00
2022-11-03T06:38:52.875Z,101075.69
2022-11-03T06:41:29.959Z,101073.00
2022-11-03T06:44:00.674Z,101073.88
2022-11-03T06:46:28.116Z,101062.34
2022-11-03T06:48:59.106Z,101073.97
2022-11-03T06:51:30.987Z,101065.03
2022-11-03T06:54:01.751Z,101069.47
2022-11-03T06:56:31.872Z,101069.44
2022-11-03T06:58:58.791Z,101065.88
2022-11-03T07:01:31.423Z,101068.56
2022-11-03T07:04:02.379Z,101062.31
2022-11-03T07:06:36.640Z,101057.78
2022-11-03T07:09:09.679Z,101058.50
2022-11-03T07:11:45.111Z,101061.97
2022-11-03T07:14:19.964Z,101056.59
2022-11-03T07:16:48.830Z,101063.66
2022-11-03T07:19:21.383Z,101056.53
2022-11-03T07:21:59.733Z,101058.22
2022-11-03T07:24:30.334Z,101058.13
2022-11-03T07:27:12.121Z,101060.66
2022-11-03T07:29:39.202Z,101058.75
2022-11-03T07:32:16.266Z,101061.25
2022-11-03T07:34:43.151Z,101051.44
2022-11-03T07:37:23.225Z,101046.06
2022-11-03T07:39:51.129Z,101037.97
2022-11-03T07:42:24.025Z,101037.03
2022-11-03T07:44:52.357Z,101043.94
2022-11-03T07:47:29.168Z,101042.06
2022-11-03T07:49:56.619Z,101042.91
2022-11-03T07:52:26.046Z,101044.66
2022-11-03T07:54:57.129Z,101035.63
2022-11-03T07:57:32.155Z,101033.78
2022-11-03T08:00:10.305Z,101034.44
2022-11-03T08:02:39.488Z,101034.44
2022-11-03T08:05:08.407Z,101028.03
2022-11-03T08:07:35.340Z,101023.63
2022-11-03T08:10:02.314Z,101027.00
2022-11-03T08:12:29.223Z,101021.56
2022-11-03T08:14:56.108Z,101020.56
2022-11-03T08:17:23.069Z,101017.88
2022-11-03T08:19:50.102Z,101026.66
2022-11-03T08:22:17.013Z,101016.03
2022-11-03T08:24:44.105Z,101008.69
2022-11-03T08:27:11.054Z,101008.69
2022-11-03T08:29:37.944Z,101004.22
2022-11-03T08:32:05.176Z,101004.94
2022-11-03T08:34:32.048Z,101001.19
2022-11-03T08:36:58.915Z,100988.69
2022-11-03T08:39:25.806Z,100987.81
2022-11-03T08:41:52.673Z,100972.63
2022-11-03T08:44:19.554Z,100975.03
2022-11-03T08:46:46.478Z,100962.63
2022-11-03T08:49:13.414Z,100957.81
2022-11-03T08:51:44.405Z,100938.22
2022-11-03T08:54:11.752Z,100933.78
2022-11-03T08:56:38.694Z,100938.84
2022-11-03T08:59:05.568Z,100936.19
2022-11-03T09:01:32.749Z,100938.63
2022-11-03T09:03:59.786Z,100923.41
2022-11-03T09:06:26.715Z,100918.94
2022-11-03T09:11:40.519Z,100906.88
2022-11-03T09:14:07.439Z,100901.25
2022-11-03T09:16:34.325Z,100903.53
2022-11-03T09:19:01.215Z,100884.75
2022-11-03T09:21:28.100Z,100881.16
2022-11-03T09:23:55.119Z,100869.44
2022-11-03T09:26:22.190Z,100877.25
2022-11-03T09:28:49.526Z,100864.03
2022-11-03T09:31:17.127Z,100850.69
2022-11-03T09:33:44.094Z,100842.50
2022-11-03T09:36:11.154Z,100836.09
2022-11-03T09:38:38.035Z,100829.69
2022-11-03T09:41:13.962Z,100835.84
2022-11-03T09:43:53.961Z,100816.16
2022-11-03T09:46:20.887Z,100805.41
2022-11-03T09:48:47.893Z,100817.34
2022-11-03T09:51:20.994Z,100805.28
2022-11-03T09:53:48.834Z,100797.91
2022-11-03T09:56:22.690Z,100797.41
2022-11-03T09:58:54.006Z,100789.50
2022-11-03T10:01:22.580Z,100790.09
2022-11-03T10:03:49.914Z,100780.00
2022-11-03T10:06:17.470Z,100767.22
2022-11-03T10:08:46.658Z,100774.53
2022-11-03T10:11:14.858Z,100765.41
2022-11-03T10:13:49.919Z,100766.81
2022-11-03T10:16:21.388Z,100758.69
2022-11-03T10:18:49.377Z,100751.91
2022-11-03T10:21:20.351Z,100741.34
2022-11-03T10:23:50.164Z,100740.28
2022-11-03T10:26:19.600Z,100734.06
2022-11-03T10:29:09.126Z,100736.31
2022-11-03T10:31:39.462Z,100732.69
2022-11-03T10:34:37.356Z,100731.13
2022-11-03T10:37:22.665Z,100725.91
2022-11-03T10:39:52.814Z,100719.72
2022-11-03T10:42:24.582Z,100714.66
2022-11-03T10:44:54.804Z,100705.31
2022-11-03T10:47:34.135Z,100699.41
2022-11-03T10:50:25.082Z,100696.66
2022-11-03T10:52:52.928Z,100683.34
2022-11-03T10:55:25.004Z,100675.19
2022-11-03T10:57:55.600Z,100675.88
2022-11-03T11:00:23.913Z,100669.59
2022-11-03T11:02:56.666Z,100665.91
2022-11-03T11:05:24.860Z,100663.03
2022-11-03T11:07:54.007Z,100655.59
2022-11-03T11:10:25.242Z,100643.03
2022-11-03T11:13:22.983Z,100650.91
2022-11-03T11:15:57.923Z,100645.38
2022-11-03T11:18:30.637Z,100656.25
2022-11-03T11:21:02.092Z,100647.91
2022-11-03T11:23:29.025Z,100648.63
2022-11-03T11:26:11.129Z,100652.16
2022-11-03T11:28:40.814Z,100644.75
2022-11-03T11:31:32.529Z,100640.34
2022-11-03T11:34:18.256Z,100640.91
2022-11-03T11:37:03.731Z,100630.13
2022-11-03T11:39:31.079Z,100618.13
2022-11-03T11:42:21.733Z,100618.59
2022-11-03T11:44:56.935Z,100614.59
2022-11-03T11:47:43.510Z,100600.25
2022-11-03T11:50:20.969Z,100600.03
2022-11-03T11:53:10.933Z,100590.19
2022-11-03T11:55:48.685Z,100595.44
2022-11-03T11:58:29.889Z,100595.19
2022-11-03T12:01:06.614Z,100573.53
2022-11-03T12:03:45.281Z,100569.72
2022-11-03T12:06:15.871Z,100556.16
2022-11-03T12:08:43.927Z,100564.03
2022-11-03T12:11:13.226Z,100546.38
2022-11-03T12:13:52.426Z,100544.75
2022-11-03T12:16:31.875Z,100541.75
2022-11-03T12:19:39.709Z,100524.97
2022-11-03T12:22:26.163Z,100527.56
2022-11-03T12:25:00.781Z,100510.72
2022-11-03T12:27:27.625Z,100505.34
2022-11-03T12:29:55.643Z,100495.88
2022-11-03T12:32:33.588Z,100492.59
2022-11-03T12:35:03.459Z,100485.22
2022-11-03T12:37:30.334Z,100490.41
2022-11-03T12:39:57.191Z,100478.59
2022-11-03T12:42:25.185Z,100489.13
2022-11-03T12:44:52.947Z,100473.47
2022-11-03T12:47:20.642Z,100471.56
2022-11-03T12:49:47.672Z,100469.47
2022-11-03T12:52:14.946Z,100465.84
2022-11-03T12:54:44.954Z,100462.22
2022-11-03T12:57:11.876Z,100461.84
2022-11-03T12:59:38.886Z,100447.31
2022-11-03T13:02:06.950Z,100454.22
2022-11-03T13:04:33.936Z,100441.41
2022-11-03T13:07:00.823Z,100443.34
2022-11-03T13:09:27.699Z,100440.13
2022-11-03T13:12:13.303Z,100422.03
2022-11-03T13:14:44.429Z,100414.75
2022-11-03T13:17:13.233Z,100406.63
2022-11-03T13:19:40.081Z,100400.66
2022-11-03T13:22:06.943Z,100391.94
2022-11-03T13:24:33.876Z,100393.47
2022-11-03T13:27:00.746Z,100384.63
2022-11-03T13:29:32.429Z,100378.22
2022-11-03T13:32:03.419Z,100383.84
2022-11-03T13:34:30.901Z,100367.94
2022-11-03T13:36:58.655Z,100366.53
2022-11-03T13:39:25.687Z,100356.56
2022-11-03T13:41:52.654Z,100352.44
2022-11-03T13:44:19.779Z,100353.69
2022-11-03T13:46:46.667Z,100336.75
2022-11-03T13:52:00.431Z,100329.75
2022-11-03T14:00:03.634Z,100328.09
2022-11-03T14:05:19.582Z,100326.47
2022-11-03T14:07:46.516Z,100323.13
2022-11-03T14:10:13.408Z,100303.00
2022-11-03T14:12:40.282Z,100304.06
2022-11-03T14:15:12.302Z,100295.81
2022-11-03T14:17:40.372Z,100291.34
2022-11-03T14:20:12.211Z,100279.19
2022-11-03T14:22:40.767Z,100284.63
2022-11-03T14:25:08.740Z,100281.34
2022-11-03T14:27:35.743Z,100277.06
2022-11-03T14:30:03.065Z,100272.47
2022-11-03T14:32:29.972Z,100259.34
2022-11-03T14:34:56.948Z,100262.53
2022-11-03T14:37:25.328Z,100253.06
2022-11-03T14:39:52.390Z,100253.22
2022-11-03T14:42:19.293Z,100252.28
2022-11-03T14:44:47.293Z,100263.78
2022-11-03T14:47:18.039Z,100272.06
2022-11-03T14:49:46.511Z,100268.81
2022-11-03T14:52:14.817Z,100267.09
2022-11-03T14:54:42.918Z,100263.03
2022-11-03T14:57:10.109Z,100259.56
2022-11-03T14:59:37.067Z,100257.84
2022-11-03T15:02:05.801Z,100245.41
2022-11-03T15:04:32.945Z,100239.38
2022-11-03T15:06:59.967Z,100239.75
2022-11-03T15:09:26.921Z,100248.13
2022-11-03T15:11:53.851Z,100245.72
2022-11-03T15:14:20.783Z,100235.19
2022-11-03T15:16:47.999Z,100242.81
2022-11-03T15:19:14.941Z,100232.97
2022-11-03T15:21:41.881Z,100227.97
2022-11-03T15:26:55.826Z,100223.16
2022-11-03T15:29:23.866Z,100220.72
2022-11-03T15:31:50.771Z,100219.28
2022-11-03T15:34:18.017Z,100211.34
2022-11-03T15:36:45.117Z,100201.75
2022-11-03T15:39:13.088Z,100196.63
2022-11-03T15:41:40.002Z,100196.69
2022-11-03T15:44:06.895Z,100200.47
2022-11-03T15:46:35.346Z,100184.72
2022-11-03T15:49:02.968Z,100178.59
2022-11-03T15:51:29.846Z,100165.31
2022-11-03T15:53:58.912Z,100162.81
2022-11-03T15:56:27.513Z,100149.63
2022-11-03T15:58:54.743Z,100149.81
2022-11-03T16:01:21.849Z,100149.97
2022-11-03T16:03:48.872Z,100150.13
2022-11-03T16:06:16.241Z,100146.81
2022-11-03T16:08:43.431Z,100148.53
2022-11-03T16:11:10.288Z,100147.66
2022-11-03T16:13:37.159Z,100148.78
2022-11-03T16:16:04.283Z,100139.91
2022-11-03T16:18:31.184Z,100133.97
2022-11-03T16:20:58.076Z,100134.72
2022-11-03T16:23:24.972Z,100127.75
2022-11-03T16:25:51.921Z,100123.53
2022-11-03T16:28:18.798Z,100121.28
2022-11-03T16:30:51.116Z,100126.72
2022-11-03T16:33:20.926Z,100112.34
2022-11-03T16:35:47.823Z,100111.63
2022-11-03T16:38:15.276Z,100118.78
2022-11-03T16:40:42.967Z,100113.66
2022-11-03T16:43:11.861Z,100122.53
2022-11-03T16:45:39.065Z,100121.00
2022-11-03T16:48:07.691Z,100118.50
2022-11-03T16:50:34.874Z,100118.50
2022-11-03T16:53:02.013Z,100117.78
2022-11-03T16:55:28.887Z,100113.66
2022-11-03T16:57:55.933Z,100115.56
2022-11-03T17:00:24.038Z,100116.59
2022-11-03T17:02:50.998Z,100104.09
2022-11-03T17:05:20.633Z,100102.56
2022-11-03T17:07:53.246Z,100102.66
2022-11-03T17:10:21.285Z,100095.91
2022-11-03T17:12:48.264Z,100095.16
2022-11-03T17:15:15.372Z,100098.84
2022-11-03T17:17:42.290Z,100106.16
2022-11-03T17:20:11.694Z,100099.34
2022-11-03T17:22:38.769Z,100109.47
2022-11-03T17:25:09.359Z,100096.31
2022-11-03T17:27:47.926Z,100086.66
2022-11-03T17:30:21.651Z,100095.69
2022-11-03T17:32:50.741Z,100089.66
2022-11-03T17:35:39.602Z,100087.16
2022-11-03T17:38:13.742Z,100095.75
2022-11-03T17:40:43.039Z,100085.84
2022-11-03T17:43:24.714Z,100089.47
2022-11-03T17:45:52.121Z,100091.28
2022-11-03T17:48:19.475Z,100085.16
2022-11-03T17:50:49.918Z,100081.69
2022-11-03T17:53:27.278Z,100076.44
2022-11-03T17:56:28.045Z,100068.72
2022-11-03T17:58:46.557Z,100063.38
2022-11-03T18:01:27.140Z,100063.44
2022-11-03T18:03:54.500Z,100064.13
2022-11-03T18:06:22.297Z,100059.91
2022-11-03T18:08:50.110Z,100047.25
2022-11-03T18:11:45.217Z,100047.25
2022-11-03T18:14:12.698Z,100054.31
2022-11-03T18:16:40.616Z,100045.44
2022-11-03T18:19:15.351Z,100045.63
2022-11-03T18:21:42.656Z,100031.44
2022-11-03T18:24:18.195Z,100035.28
2022-11-03T18:26:45.209Z,100030.09
2022-11-03T18:29:12.093Z,100035.34
2022-11-03T18:31:49.503Z,100044.22
2022-11-03T18:34:22.769Z,100045.00
2022-11-03T18:36:49.933Z,100041.75
2022-11-03T18:39:25.530Z,100048.09
2022-11-03T18:41:52.683Z,100036.50
2022-11-03T18:44:29.008Z,100035.78
2022-11-03T18:46:56.882Z,100035.78
2022-11-03T18:49:27.042Z,100027.78
2022-11-03T18:52:03.528Z,100029.44
2022-11-03T18:54:33.866Z,100023.16
2022-11-03T18:57:01.991Z,100024.09
2022-11-03T18:59:37.428Z,100024.03
2022-11-03T19:02:16.360Z,100025.13
2022-11-03T19:04:43.551Z,100019.69
2022-11-03T19:07:14.227Z,100013.59
2022-11-03T19:09:42.435Z,100017.19
2022-11-03T19:12:13.852Z,100015.53
2022-11-03T19:14:44.823Z,100021.66
2022-11-03T19:17:23.006Z,100015.22
2022-11-03T19:19:52.511Z,100005.75
2022-11-03T19:22:22.241Z,99997.59
2022-11-03T19:24:49.519Z,99994.06
2022-11-03T19:27:25.706Z,99987.94
2022-11-03T19:29:52.979Z,99977.97
2022-11-03T19:32:25.032Z,99979.06
2022-11-03T19:34:59.793Z,99973.50
2022-11-03T19:37:34.052Z,99972.72
2022-11-03T19:40:02.421Z,99968.19
2022-11-03T19:42:30.854Z,99969.13
2022-11-03T19:44:59.953Z,99957.50
2022-11-03T19:47:32.782Z,99950.38
2022-11-03T19:50:02.219Z,99952.16
2022-11-03T19:52:31.498Z,99952.09
2022-11-03T19:55:02.257Z,99953.97
2022-11-03T19:57:29.183Z,99951.47
2022-11-03T19:59:58.821Z,99949.66
2022-11-03T20:02:28.044Z,99947.78
2022-11-03T20:04:55.257Z,99935.41
2022-11-03T20:07:28.135Z,99943.38
2022-11-03T20:09:58.487Z,99941.66
2022-11-03T20:12:25.500Z,99944.34
2022-11-03T20:14:52.427Z,99939.00
2022-11-03T20:17:22.732Z,99943.47
2022-11-03T20:19:49.957Z,99948.81
2022-11-03T20:22:24.071Z,99956.22
2022-11-03T20:24:55.545Z,99961.69
2022-11-03T20:27:22.477Z,99963.34
2022-11-03T20:29:49.475Z,99956.38
2022-11-03T20:32:16.642Z,99962.72
2022-11-03T20:34:43.619Z,99959.13
2022-11-03T20:37:18.795Z,99954.72
2022-11-03T20:39:47.342Z,99952.25
2022-11-03T20:42:26.053Z,99946.06
2022-11-03T20:44:53.207Z,99952.31
2022-11-03T20:47:20.799Z,99947.00
2022-11-03T20:49:48.346Z,99944.41
2022-11-03T20:52:16.465Z,99920.50
2022-11-03T20:54:43.888Z,99929.44
2022-11-03T20:57:14.261Z,99934.69
2022-11-03T20:59:41.929Z,99936.47
2022-11-03T21:02:12.323Z,99933.91
2022-11-03T21:04:40.184Z,99932.00
2022-11-03T21:07:09.196Z,99935.84
2022-11-03T21:09:36.045Z,99937.41
2022-11-03T21:12:03.141Z,99937.66
2022-11-03T21:14:32.730Z,99948.25
2022-11-03T21:17:18.366Z,99951.97
2022-11-03T21:20:03.533Z,99950.22
2022-11-03T21:22:55.646Z,99952.97
2022-11-03T21:25:24.383Z,99939.84
2022-11-03T21:27:53.498Z,99962.97
2022-11-03T21:30:20.672Z,99952.56
2022-11-03T21:32:47.907Z,99949.28
2022-11-03T21:35:19.264Z,99963.47
2022-11-03T21:37:46.233Z,99985.72
2022-11-03T21:40:13.170Z,100006.16
2022-11-03T21:42:58.720Z,100024.81
2022-11-03T21:45:26.082Z,100045.34
2022-11-03T21:48:13.878Z,100048.97
2022-11-03T21:50:42.446Z,100048.19
2022-11-03T21:53:10.435Z,100043.78
2022-11-03T21:55:37.918Z,100059.78
2022-11-03T21:58:04.914Z,100063.47
2022-11-03T22:00:32.487Z,100060.00
2022-11-03T22:03:00.387Z,100059.06
2022-11-03T22:05:27.992Z,100068.00
2022-11-03T22:07:55.092Z,100068.06
2022-11-03T22:10:22.626Z,100065.66
2022-11-03T22:12:49.524Z,100067.38
2022-11-03T22:15:36.906Z,100063.84
2022-11-03T22:18:06.247Z,100063.94
2022-11-03T22:20:52.124Z,100057.81
2022-11-03T22:23:37.726Z,100059.59
2022-11-03T22:26:23.554Z,100069.31
2022-11-03T22:29:10.391Z,100056.09
2022-11-03T22:31:43.482Z,100072.44
2022-11-03T22:34:29.379Z,100083.03
2022-11-03T22:36:56.468Z,100084.03
2022-11-03T22:39:41.896Z,100086.72
2022-11-03T22:42:30.846Z,100098.28
2022-11-03T22:45:16.260Z,100109.75
2022-11-03T22:47:43.164Z,100107.06
2022-11-03T22:50:10.266Z,100100.69
2022-11-03T22:52:37.219Z,100105.13
2022-11-03T22:55:04.778Z,100111.41
2022-11-03T22:57:31.695Z,100101.59
2022-11-03T22:59:58.570Z,100105.13
2022-11-03T23:02:25.720Z,100118.53
2022-11-03T23:04:52.677Z,100119.31
2022-11-03T23:07:19.612Z,100116.72
2022-11-03T23:09:46.540Z,100118.44
2022-11-03T23:12:13.470Z,100125.47
2022-11-03T23:14:59.134Z,100135.44
2022-11-03T23:17:45.972Z,100131.84
2022-11-03T23:20:32.685Z,100138.97
2022-11-03T23:22:59.567Z,100142.44
2022-11-03T23:25:26.442Z,100143.19
2022-11-03T23:27:53.658Z,100140.53
2022-11-03T23:30:20.557Z,100144.13
2022-11-03T23:32:47.414Z,100134.44
2022-11-03T23:35:14.574Z,100134.44
2022-11-03T23:37:41.505Z,100145.09
2022-11-03T23:40:09.241Z,100142.50
2022-11-03T23:42:36.116Z,100146.09
2022-11-03T23:45:21.570Z,100148.81
2022-11-03T23:48:07.948Z,100158.75
2022-11-03T23:50:35.083Z,100168.59
2022-11-03T23:53:01.938Z,100179.56
2022-11-03T23:55:49.036Z,100173.50
2022-11-03T23:58:18.863Z,100175.31
